createdAt,value
2023-04-07T00:02:22.295Z,15.40
2023-04-07T00:05:35.405Z,14.75
2023-04-07T00:08:47.776Z,15.40
2023-04-07T00:12:02.740Z,15.07
2023-04-07T00:15:15.193Z,15.52
2023-04-07T00:18:27.840Z,14.50
2023-04-07T00:21:41.098Z,15.13
2023-04-07T00:24:54.547Z,14.32
2023-04-07T00:28:06.932Z,13.77
2023-04-07T00:31:19.672Z,14.55
2023-04-07T00:34:32.103Z,15.50
2023-04-07T00:37:44.815Z,16.40
2023-04-07T00:41:00.047Z,14.93
2023-04-07T00:44:13.072Z,15.23
2023-04-07T00:47:25.536Z,14.85
2023-04-07T00:50:38.282Z,16.27
2023-04-07T00:53:50.715Z,16.12
2023-04-07T00:57:03.436Z,14.52
2023-04-07T01:00:15.940Z,15.85
2023-04-07T01:03:35.015Z,15.63
2023-04-07T01:06:48.599Z,15.68
2023-04-07T01:10:06.616Z,15.27
2023-04-07T01:13:53.334Z,16.80
2023-04-07T01:17:07.477Z,15.40
2023-04-07T01:20:21.423Z,15.20
2023-04-07T01:24:12.890Z,15.38
2023-04-07T01:27:37.003Z,15.18
2023-04-07T01:30:49.639Z,16.23
2023-04-07T01:34:02.042Z,16.87
2023-04-07T01:37:14.796Z,16.58
2023-04-07T01:40:27.354Z,17.37
2023-04-07T01:43:41.659Z,15.48
2023-04-07T01:46:54.543Z,16.25
2023-04-07T01:50:09.372Z,15.05
2023-04-07T01:53:21.810Z,16.20
2023-04-07T01:56:34.417Z,16.45
2023-04-07T01:59:48.245Z,16.58
2023-04-07T02:03:07.873Z,16.00
2023-04-07T02:06:23.377Z,15.75
2023-04-07T02:09:36.411Z,16.90
2023-04-07T02:12:49.117Z,16.00
2023-04-07T02:16:02.579Z,17.00
2023-04-07T02:19:15.302Z,16.65
2023-04-07T02:22:27.636Z,16.85
2023-04-07T02:25:40.423Z,17.10
2023-04-07T02:28:53.042Z,17.23
2023-04-07T02:32:06.559Z,15.82
2023-04-07T02:35:19.445Z,16.20
2023-04-07T02:38:32.336Z,17.50
2023-04-07T02:41:44.996Z,16.05
2023-04-07T02:44:57.404Z,16.73
2023-04-07T02:48:10.075Z,19.50
2023-04-07T02:51:22.483Z,16.80
2023-04-07T02:54:35.097Z,15.63
2023-04-07T02:57:47.473Z,16.17
2023-04-07T03:01:01.338Z,16.37
2023-04-07T03:04:14.011Z,16.05
2023-04-07T03:07:28.511Z,17.08
2023-04-07T03:10:41.204Z,15.48
2023-04-07T03:13:54.341Z,16.67
2023-04-07T03:17:07.083Z,17.00
2023-04-07T03:20:20.737Z,15.77
2023-04-07T03:23:33.217Z,16.30
2023-04-07T03:26:46.395Z,16.55
2023-04-07T03:29:59.454Z,16.65
2023-04-07T03:33:12.651Z,16.75
2023-04-07T03:36:25.092Z,16.00
2023-04-07T03:39:39.323Z,15.98
2023-04-07T03:42:52.710Z,16.42
2023-04-07T03:46:05.716Z,16.58
2023-04-07T03:49:18.157Z,16.08
2023-04-07T03:52:31.031Z,17.65
2023-04-07T03:55:44.563Z,15.70
2023-04-07T03:58:57.960Z,17.60
2023-04-07T04:02:11.469Z,20.65
2023-04-07T04:05:24.921Z,21.42
2023-04-07T04:08:37.585Z,21.98
2023-04-07T04:11:51.155Z,20.55
2023-04-07T04:15:04.102Z,18.15
2023-04-07T04:18:17.422Z,15.65
2023-04-07T04:21:31.280Z,15.63
2023-04-07T04:24:44.046Z,15.48
2023-04-07T04:27:56.632Z,18.27
2023-04-07T04:31:10.647Z,19.40
2023-04-07T04:34:23.600Z,26.20
2023-04-07T04:37:36.733Z,30.00
2023-04-07T04:40:49.886Z,21.42
2023-04-07T04:44:03.063Z,17.33
2023-04-07T04:47:16.425Z,16.23
2023-04-07T04:50:29.230Z,16.02
2023-04-07T04:53:41.972Z,16.67
2023-04-07T04:56:56.578Z,16.10
2023-04-07T05:00:10.069Z,17.10
2023-04-07T05:03:26.447Z,16.33
2023-04-07T05:06:39.593Z,15.90
2023-04-07T05:09:52.642Z,16.67
2023-04-07T05:13:05.496Z,15.43
2023-04-07T05:16:18.375Z,15.63
2023-04-07T05:19:31.153Z,15.38
2023-04-07T05:22:44.401Z,15.30
2023-04-07T05:25:57.705Z,16.30
2023-04-07T05:29:11.012Z,17.80
2023-04-07T05:32:24.802Z,19.83
2023-04-07T05:35:37.998Z,19.92
2023-04-07T05:38:50.634Z,19.73
2023-04-07T05:42:04.050Z,19.50
2023-04-07T05:45:16.594Z,19.50
2023-04-07T05:48:30.034Z,17.08
2023-04-07T05:51:42.425Z,17.83
2023-04-07T05:54:56.525Z,20.17
2023-04-07T05:58:11.466Z,20.88
2023-04-07T06:01:25.803Z,20.52
2023-04-07T06:04:39.720Z,18.67
2023-04-07T06:07:54.599Z,17.65
2023-04-07T06:11:09.628Z,18.20
2023-04-07T06:14:21.991Z,20.20
2023-04-07T06:17:35.089Z,17.50
2023-04-07T06:20:47.450Z,17.45
2023-04-07T06:24:00.412Z,16.00
2023-04-07T06:27:13.305Z,16.70
2023-04-07T06:30:25.997Z,15.75
2023-04-07T06:33:38.492Z,15.60
2023-04-07T06:36:51.230Z,17.35
2023-04-07T06:40:03.718Z,16.27
2023-04-07T06:43:16.349Z,16.10
2023-04-07T06:46:29.208Z,15.25
2023-04-07T06:49:41.970Z,15.55
2023-04-07T06:52:54.362Z,15.90
2023-04-07T06:56:10.795Z,15.40
2023-04-07T06:59:23.269Z,16.00
2023-04-07T07:02:37.565Z,15.82
2023-04-07T07:05:50.516Z,16.40
2023-04-07T07:09:03.318Z,15.13
2023-04-07T07:12:17.264Z,15.43
2023-04-07T07:15:29.983Z,14.93
2023-04-07T07:18:44.935Z,15.23
2023-04-07T07:21:57.608Z,15.13
2023-04-07T07:25:10.194Z,16.17
2023-04-07T07:28:23.789Z,14.57
2023-04-07T07:31:36.380Z,15.73
2023-04-07T07:34:49.020Z,15.20
2023-04-07T07:38:01.484Z,15.18
2023-04-07T07:41:14.092Z,13.48
2023-04-07T07:44:26.496Z,15.07
2023-04-07T07:47:39.197Z,14.25
2023-04-07T07:50:52.509Z,14.68
2023-04-07T07:54:05.201Z,15.27
2023-04-07T07:57:17.606Z,15.05
2023-04-07T08:00:30.488Z,14.25
2023-04-07T08:03:46.312Z,14.68
2023-04-07T08:06:58.929Z,14.25
2023-04-07T08:10:11.569Z,14.20
2023-04-07T08:13:23.927Z,13.80
2023-04-07T08:16:36.717Z,12.80
2023-04-07T08:19:49.211Z,13.40
2023-04-07T08:23:02.319Z,12.88
2023-04-07T08:26:14.706Z,13.88
2023-04-07T08:29:27.374Z,13.88
2023-04-07T08:32:43.970Z,14.02
2023-04-07T08:35:57.018Z,12.75
2023-04-07T08:39:09.382Z,13.25
2023-04-07T08:42:22.706Z,13.07
2023-04-07T08:45:35.294Z,12.95
2023-04-07T08:48:47.938Z,13.55
2023-04-07T08:52:00.619Z,13.80
2023-04-07T08:55:13.373Z,14.55
2023-04-07T08:58:25.935Z,14.90
2023-04-07T09:01:38.950Z,13.70
2023-04-07T09:04:51.616Z,14.23
2023-04-07T09:08:04.241Z,14.52
2023-04-07T09:11:16.609Z,14.98
2023-04-07T09:14:29.283Z,14.02
2023-04-07T09:17:41.672Z,13.75
2023-04-07T09:20:58.667Z,14.32
2023-04-07T09:24:29.472Z,14.43
2023-04-07T09:27:42.291Z,14.40
2023-04-07T09:30:54.980Z,15.32
2023-04-07T09:34:08.148Z,13.77
2023-04-07T09:37:22.213Z,15.02
2023-04-07T09:40:35.536Z,15.05
2023-04-07T09:43:48.473Z,14.95
2023-04-07T09:47:01.547Z,14.93
2023-04-07T09:50:13.936Z,14.07
2023-04-07T09:53:41.879Z,14.35
2023-04-07T09:56:54.241Z,14.38
2023-04-07T10:00:07.627Z,14.93
2023-04-07T10:03:25.183Z,15.02
2023-04-07T10:06:37.830Z,14.77
2023-04-07T10:09:50.566Z,15.65
2023-04-07T10:13:04.850Z,15.02
2023-04-07T10:16:17.246Z,15.45
2023-04-07T10:19:33.610Z,14.40
2023-04-07T10:22:45.969Z,14.93
2023-04-07T10:25:58.687Z,14.43
2023-04-07T10:29:11.987Z,14.45
2023-04-07T10:32:24.658Z,14.07
2023-04-07T10:36:06.283Z,14.20
2023-04-07T10:39:19.676Z,14.07
2023-04-07T10:42:37.721Z,13.93
2023-04-07T10:45:51.986Z,13.57
2023-04-07T10:49:10.323Z,13.20
2023-04-07T10:52:24.105Z,12.55
2023-04-07T10:55:45.734Z,12.27
2023-04-07T10:59:17.289Z,12.07
2023-04-07T11:02:29.763Z,12.43
2023-04-07T11:05:42.735Z,12.70
2023-04-07T11:08:57.864Z,12.30
2023-04-07T11:12:22.847Z,12.10
2023-04-07T11:15:37.887Z,12.90
2023-04-07T11:18:52.866Z,12.02
2023-04-07T11:25:36.956Z,13.07
2023-04-07T11:28:53.564Z,11.98
2023-04-07T11:32:06.252Z,12.82
2023-04-07T11:35:18.581Z,12.60
2023-04-07T11:38:38.389Z,12.93
2023-04-07T11:41:50.911Z,12.50
2023-04-07T11:45:04.665Z,11.88
2023-04-07T11:48:28.875Z,12.57
2023-04-07T11:51:43.511Z,13.05
2023-04-07T11:54:55.949Z,12.68
2023-04-07T11:58:12.134Z,13.00
2023-04-07T12:01:24.919Z,12.35
2023-04-07T12:04:40.250Z,12.57
2023-04-07T12:07:53.759Z,12.32
2023-04-07T12:11:06.441Z,13.23
2023-04-07T12:14:18.942Z,14.57
2023-04-07T12:17:31.626Z,13.73
2023-04-07T12:20:44.793Z,12.50
2023-04-07T12:23:57.441Z,13.82
2023-04-07T12:27:10.201Z,11.95
2023-04-07T12:30:22.903Z,12.15
2023-04-07T12:33:35.487Z,12.52
2023-04-07T12:36:48.387Z,12.60
2023-04-07T12:40:00.788Z,12.52
2023-04-07T12:43:13.575Z,10.93
2023-04-07T12:46:26.051Z,11.30
2023-04-07T12:49:38.713Z,11.40
2023-04-07T12:52:52.111Z,11.32
2023-04-07T12:56:04.968Z,11.77
2023-04-07T12:59:17.346Z,12.00
2023-04-07T13:02:30.514Z,11.38
2023-04-07T13:05:43.003Z,11.60
2023-04-07T13:08:56.511Z,12.70
2023-04-07T13:12:11.040Z,12.85
2023-04-07T13:15:23.721Z,13.55
2023-04-07T13:18:36.739Z,11.70
2023-04-07T13:21:49.414Z,12.88
2023-04-07T13:25:02.241Z,11.15
2023-04-07T13:28:18.544Z,11.57
2023-04-07T13:31:30.897Z,12.77
2023-04-07T13:34:44.094Z,13.07
2023-04-07T13:37:56.413Z,12.93
2023-04-07T13:41:10.052Z,13.00
2023-04-07T13:44:22.509Z,13.93
2023-04-07T13:47:35.505Z,12.68
2023-04-07T13:50:47.864Z,12.57
2023-04-07T13:54:00.638Z,12.93
2023-04-07T13:57:14.559Z,12.90
2023-04-07T14:00:27.253Z,13.80
2023-04-07T14:03:40.044Z,14.27
2023-04-07T14:06:52.489Z,12.70
2023-04-07T14:10:05.507Z,13.10
2023-04-07T14:13:17.845Z,12.77
2023-04-07T14:16:31.285Z,13.27
2023-04-07T14:19:43.667Z,13.50
2023-04-07T14:22:56.303Z,15.00
2023-04-07T14:26:11.934Z,17.30
2023-04-07T14:29:24.549Z,14.00
2023-04-07T14:32:36.945Z,13.70
2023-04-07T14:35:49.644Z,12.60
2023-04-07T14:39:02.088Z,14.23
2023-04-07T14:42:14.690Z,13.45
2023-04-07T14:45:27.017Z,12.68
2023-04-07T14:48:40.123Z,11.60
2023-04-07T14:51:52.418Z,12.15
2023-04-07T14:55:05.401Z,15.73
2023-04-07T14:58:17.754Z,14.77
2023-04-07T15:01:31.606Z,13.50
2023-04-07T15:04:44.208Z,13.75
2023-04-07T15:07:57.131Z,14.38
2023-04-07T15:11:09.617Z,16.55
2023-04-07T15:14:22.267Z,14.23
2023-04-07T15:17:43.039Z,14.90
2023-04-07T15:20:57.327Z,14.98
2023-04-07T15:24:09.678Z,15.02
2023-04-07T15:27:22.332Z,15.27
2023-04-07T15:30:37.125Z,15.55
2023-04-07T15:33:50.130Z,13.48
2023-04-07T15:37:03.977Z,13.18
2023-04-07T15:40:16.928Z,14.52
2023-04-07T15:43:29.290Z,15.85
2023-04-07T15:46:41.974Z,15.50
2023-04-07T15:49:54.296Z,15.88
2023-04-07T15:53:07.081Z,14.63
2023-04-07T15:56:19.528Z,13.75
2023-04-07T15:59:32.367Z,15.55
2023-04-07T16:02:46.946Z,15.57
2023-04-07T16:05:59.773Z,13.68
2023-04-07T16:09:12.124Z,12.27
2023-04-07T16:12:24.783Z,13.82
2023-04-07T16:15:40.872Z,12.77
2023-04-07T16:22:06.408Z,13.98
2023-04-07T16:25:19.088Z,13.10
2023-04-07T16:28:31.418Z,13.43
2023-04-07T16:31:44.517Z,12.05
2023-04-07T16:34:56.911Z,13.70
2023-04-07T16:38:09.644Z,13.55
2023-04-07T16:41:22.016Z,13.35
2023-04-07T16:44:35.282Z,14.73
2023-04-07T16:47:47.682Z,14.75
2023-04-07T16:51:00.536Z,15.35
2023-04-07T16:54:12.893Z,13.07
2023-04-07T16:57:25.609Z,13.32
2023-04-07T17:00:37.921Z,14.80
2023-04-07T17:03:51.570Z,15.43
2023-04-07T17:07:04.766Z,13.57
2023-04-07T17:10:17.465Z,15.85
2023-04-07T17:13:29.800Z,15.27
2023-04-07T17:16:42.452Z,17.10
2023-04-07T17:19:56.245Z,17.25
2023-04-07T17:23:10.570Z,17.75
2023-04-07T17:26:24.299Z,18.08
2023-04-07T17:29:36.976Z,16.48
2023-04-07T17:32:50.811Z,15.65
2023-04-07T17:36:03.681Z,15.55
2023-04-07T17:39:16.232Z,16.37
2023-04-07T17:42:28.943Z,17.62
2023-04-07T17:45:41.309Z,15.95
2023-04-07T17:48:55.081Z,16.95
2023-04-07T17:52:07.464Z,17.58
2023-04-07T17:55:20.075Z,20.23
2023-04-07T17:58:32.774Z,16.35
2023-04-07T18:01:45.588Z,16.77
2023-04-07T18:05:01.085Z,18.87
2023-04-07T18:08:13.524Z,16.73
2023-04-07T18:11:26.401Z,21.65
2023-04-07T18:14:38.833Z,16.90
2023-04-07T18:17:53.243Z,14.60
2023-04-07T18:21:06.723Z,18.37
2023-04-07T18:24:20.652Z,21.92
2023-04-07T18:27:32.994Z,20.92
2023-04-07T18:30:46.108Z,17.30
2023-04-07T18:33:58.577Z,19.95
2023-04-07T18:37:11.199Z,18.05
2023-04-07T18:40:23.745Z,15.73
2023-04-07T18:43:36.447Z,15.43
2023-04-07T18:46:48.856Z,15.85
2023-04-07T18:50:01.557Z,15.63
2023-04-07T18:53:15.962Z,14.55
2023-04-07T18:56:29.967Z,13.88
2023-04-07T18:59:42.532Z,14.55
2023-04-07T19:02:55.550Z,14.77
2023-04-07T19:06:08.130Z,16.40
2023-04-07T19:09:21.492Z,15.23
2023-04-07T19:12:33.835Z,15.25
2023-04-07T19:15:46.635Z,17.42
2023-04-07T19:18:59.106Z,16.75
2023-04-07T19:22:12.576Z,15.13
2023-04-07T19:25:24.964Z,15.32
2023-04-07T19:28:37.977Z,14.10
2023-04-07T19:31:53.007Z,15.10
2023-04-07T19:35:06.588Z,14.35
2023-04-07T19:38:19.310Z,14.80
2023-04-07T19:41:33.088Z,14.95
2023-04-07T19:44:45.528Z,14.57
2023-04-07T19:47:58.407Z,14.63
2023-04-07T19:51:10.777Z,14.60
2023-04-07T19:54:23.408Z,15.05
2023-04-07T19:57:36.001Z,14.45
2023-04-07T20:00:50.847Z,15.18
2023-04-07T20:04:03.802Z,14.20
2023-04-07T20:07:16.437Z,15.30
2023-04-07T20:10:29.218Z,13.80
2023-04-07T20:13:41.816Z,13.68
2023-04-07T20:16:54.651Z,14.02
2023-04-07T20:20:07.573Z,13.30
2023-04-07T20:23:22.210Z,13.62
2023-04-07T20:26:34.573Z,13.82
2023-04-07T20:29:47.339Z,12.65
2023-04-07T20:32:59.767Z,12.35
2023-04-07T20:36:12.689Z,11.40
2023-04-07T20:39:25.075Z,11.35
2023-04-07T20:42:38.269Z,11.57
2023-04-07T20:45:52.203Z,11.07
2023-04-07T20:49:07.623Z,10.57
2023-04-07T20:52:20.151Z,10.93
2023-04-07T20:55:32.860Z,11.48
2023-04-07T20:58:45.203Z,12.15
2023-04-07T21:01:57.945Z,11.07
2023-04-07T21:05:10.491Z,11.30
2023-04-07T21:08:24.478Z,10.98
2023-04-07T21:11:36.936Z,12.45
2023-04-07T21:14:49.549Z,11.00
2023-04-07T21:18:03.882Z,12.35
2023-04-07T21:21:16.773Z,12.57
2023-04-07T21:24:29.829Z,11.90
2023-04-07T21:27:42.532Z,12.00
2023-04-07T21:30:56.684Z,13.45
2023-04-07T21:34:09.426Z,13.07
2023-04-07T21:37:23.046Z,12.27
2023-04-07T21:40:35.801Z,12.73
2023-04-07T21:43:48.139Z,12.43
2023-04-07T21:47:00.819Z,11.23
2023-04-07T21:50:13.598Z,10.50
2023-04-07T21:53:26.686Z,10.95
2023-04-07T21:56:39.001Z,10.73
2023-04-07T21:59:51.660Z,11.18
2023-04-07T22:03:07.694Z,11.05
2023-04-07T22:06:20.843Z,11.12
2023-04-07T22:09:33.181Z,10.73
2023-04-07T22:12:45.850Z,10.35
2023-04-07T22:16:01.147Z,12.13
2023-04-07T22:19:13.871Z,11.02
2023-04-07T22:22:26.240Z,10.45
2023-04-07T22:25:38.865Z,10.75
2023-04-07T22:28:51.354Z,11.27
2023-04-07T22:32:04.247Z,10.00
2023-04-07T22:35:16.708Z,11.32
2023-04-07T22:38:29.367Z,10.13
2023-04-07T22:41:41.713Z,10.70
2023-04-07T22:44:54.383Z,11.25
2023-04-07T22:48:06.991Z,10.70
2023-04-07T22:51:19.635Z,11.95
2023-04-07T22:54:31.983Z,10.68
2023-04-07T22:57:44.677Z,10.80
2023-04-07T23:00:57.720Z,10.50
2023-04-07T23:04:10.732Z,10.18
2023-04-07T23:07:23.095Z,11.45
2023-04-07T23:10:36.254Z,10.68
2023-04-07T23:13:48.631Z,11.38
2023-04-07T23:17:01.383Z,10.75
2023-04-07T23:20:13.835Z,11.25
2023-04-07T23:23:27.150Z,11.43
2023-04-07T23:26:39.585Z,11.30
2023-04-07T23:29:52.349Z,11.05
2023-04-07T23:33:04.755Z,10.77
2023-04-07T23:36:17.508Z,11.23
2023-04-07T23:39:29.904Z,10.55
2023-04-07T23:42:42.518Z,10.10
2023-04-07T23:45:54.898Z,11.02
2023-04-07T23:49:07.614Z,11.10
2023-04-07T23:52:21.507Z,10.88
2023-04-07T23:55:34.254Z,10.68
2023-04-07T23:58:46.750Z,11.27
